createdAt,value
2022-11-09T00:01:04.816Z,7.34
2022-11-09T00:03:33.681Z,7.35
2022-11-09T00:06:05.064Z,7.26
2022-11-09T00:08:31.594Z,7.28
2022-11-09T00:11:11.276Z,7.22
2022-11-09T00:13:43.097Z,7.18
2022-11-09T00:16:16.457Z,7.18
2022-11-09T00:18:47.484Z,7.19
2022-11-09T00:21:26.225Z,7.13
2022-11-09T00:23:57.499Z,7.12
2022-11-09T00:26:24.258Z,7.03
2022-11-09T00:28:53.483Z,7.05
2022-11-09T00:31:24.800Z,7.06
2022-11-09T00:33:53.916Z,7.11
2022-11-09T00:36:21.838Z,7.12
2022-11-09T00:38:53.153Z,7.08
2022-11-09T00:41:23.405Z,7.14
2022-11-09T00:43:50.693Z,7.12
2022-11-09T00:46:17.761Z,7.15
2022-11-09T00:48:44.858Z,7.12
2022-11-09T00:51:13.990Z,7.10
2022-11-09T00:53:48.286Z,7.16
2022-11-09T00:56:17.583Z,7.20
2022-11-09T00:58:52.516Z,7.22
2022-11-09T01:01:21.837Z,7.28
2022-11-09T01:03:48.475Z,7.32
2022-11-09T01:06:20.380Z,7.22
2022-11-09T01:08:48.085Z,7.28
2022-11-09T01:11:16.047Z,7.32
2022-11-09T01:13:42.617Z,7.36
2022-11-09T01:16:25.283Z,7.38
2022-11-09T01:18:56.104Z,7.42
2022-11-09T01:21:25.864Z,7.44
2022-11-09T01:23:54.546Z,7.47
2022-11-09T01:26:23.671Z,7.52
2022-11-09T01:28:53.162Z,7.51
2022-11-09T01:31:23.963Z,7.55
2022-11-09T01:33:51.126Z,7.54
2022-11-09T01:36:21.440Z,7.44
2022-11-09T01:38:51.066Z,7.23
2022-11-09T01:41:23.764Z,7.17
2022-11-09T01:44:10.878Z,7.29
2022-11-09T01:46:45.638Z,7.27
2022-11-09T01:49:30.476Z,7.29
2022-11-09T01:52:02.796Z,7.29
2022-11-09T01:54:34.045Z,7.38
2022-11-09T01:57:09.381Z,7.36
2022-11-09T01:59:45.261Z,7.28
2022-11-09T02:02:12.118Z,7.43
2022-11-09T02:04:47.407Z,7.37
2022-11-09T02:07:14.936Z,7.48
2022-11-09T02:09:53.569Z,7.52
2022-11-09T02:12:22.421Z,7.48
2022-11-09T02:14:52.169Z,7.43
2022-11-09T02:17:19.935Z,7.43
2022-11-09T02:19:46.659Z,7.36
2022-11-09T02:22:16.425Z,7.42
2022-11-09T02:24:43.072Z,7.44
2022-11-09T02:27:09.746Z,7.32
2022-11-09T02:29:40.694Z,7.16
2022-11-09T02:32:12.848Z,7.13
2022-11-09T02:34:39.384Z,7.18
2022-11-09T02:37:06.474Z,7.14
2022-11-09T02:39:35.384Z,7.10
2022-11-09T02:42:09.060Z,7.25
2022-11-09T02:44:41.775Z,7.36
2022-11-09T02:47:08.362Z,7.41
2022-11-09T02:49:35.093Z,7.47
2022-11-09T02:52:04.220Z,7.51
2022-11-09T02:54:33.060Z,7.57
2022-11-09T02:57:04.083Z,7.61
2022-11-09T02:59:30.586Z,7.64
2022-11-09T03:01:57.100Z,7.66
2022-11-09T03:04:23.659Z,7.65
2022-11-09T03:06:50.258Z,7.68
2022-11-09T03:09:19.168Z,7.72
2022-11-09T03:11:45.700Z,7.75
2022-11-09T03:14:12.361Z,7.78
2022-11-09T03:16:39.923Z,7.76
2022-11-09T03:19:09.209Z,7.79
2022-11-09T03:21:38.232Z,7.84
2022-11-09T03:24:07.524Z,7.84
2022-11-09T03:26:34.039Z,7.85
2022-11-09T03:29:00.561Z,7.87
2022-11-09T03:31:27.049Z,7.89
2022-11-09T03:33:53.545Z,7.89
2022-11-09T03:36:22.515Z,7.91
2022-11-09T03:38:48.998Z,7.89
2022-11-09T03:41:15.474Z,7.88
2022-11-09T03:43:41.953Z,7.89
2022-11-09T03:46:08.516Z,7.91
2022-11-09T03:48:37.270Z,7.91
2022-11-09T03:51:03.899Z,7.92
2022-11-09T03:53:32.745Z,7.95
2022-11-09T03:56:01.584Z,7.89
2022-11-09T03:58:28.083Z,7.89
2022-11-09T04:00:56.693Z,7.89
2022-11-09T04:03:25.475Z,7.87
2022-11-09T04:05:51.989Z,7.90
2022-11-09T04:08:23.032Z,7.94
2022-11-09T04:10:52.015Z,7.92
2022-11-09T04:13:18.760Z,7.96
2022-11-09T04:15:45.613Z,7.94
2022-11-09T04:18:16.693Z,7.95
2022-11-09T04:20:43.587Z,7.94
2022-11-09T04:23:12.759Z,7.81
2022-11-09T04:25:43.339Z,7.91
2022-11-09T04:28:13.012Z,7.93
2022-11-09T04:30:43.135Z,7.92
2022-11-09T04:33:12.169Z,7.95
2022-11-09T04:35:38.735Z,7.95
2022-11-09T04:38:11.280Z,7.93
2022-11-09T04:40:40.887Z,7.92
2022-11-09T04:43:11.467Z,7.92
2022-11-09T04:45:38.000Z,7.93
2022-11-09T04:48:06.684Z,7.94
2022-11-09T04:50:35.776Z,7.97
2022-11-09T04:53:20.565Z,7.94
2022-11-09T04:55:49.590Z,7.97
2022-11-09T04:58:18.858Z,7.94
2022-11-09T05:00:48.639Z,7.96
2022-11-09T05:03:15.197Z,7.94
2022-11-09T05:05:48.011Z,7.95
2022-11-09T05:08:14.930Z,7.95
2022-11-09T05:10:41.430Z,7.94
2022-11-09T05:13:12.448Z,7.93
2022-11-09T05:15:39.758Z,7.88
2022-11-09T05:18:07.300Z,7.92
2022-11-09T05:20:35.270Z,7.88
2022-11-09T05:23:20.797Z,7.89
2022-11-09T05:25:49.850Z,7.90
2022-11-09T05:28:16.384Z,7.70
2022-11-09T05:30:45.125Z,7.72
2022-11-09T05:33:14.780Z,7.77
2022-11-09T05:35:41.279Z,7.78
2022-11-09T05:38:07.795Z,7.81
2022-11-09T05:40:34.735Z,7.80
2022-11-09T05:43:03.560Z,7.80
2022-11-09T05:45:42.726Z,7.79
2022-11-09T05:48:16.350Z,7.69
2022-11-09T05:50:43.415Z,7.69
2022-11-09T05:53:13.802Z,7.72
2022-11-09T05:55:40.616Z,7.70
2022-11-09T05:58:09.950Z,7.72
2022-11-09T06:00:39.259Z,7.69
2022-11-09T06:03:10.749Z,7.69
2022-11-09T06:05:39.226Z,7.71
2022-11-09T06:08:08.090Z,7.71
2022-11-09T06:10:36.826Z,7.69
2022-11-09T06:13:03.629Z,7.70
2022-11-09T06:15:30.304Z,7.68
2022-11-09T06:18:00.018Z,7.67
2022-11-09T06:20:33.179Z,7.66
2022-11-09T06:23:03.985Z,7.67
2022-11-09T06:25:35.340Z,7.68
2022-11-09T06:28:02.105Z,7.68
2022-11-09T06:30:30.974Z,7.66
2022-11-09T06:33:03.628Z,7.71
2022-11-09T06:35:32.828Z,7.74
2022-11-09T06:38:00.278Z,7.74
2022-11-09T06:40:27.607Z,7.74
2022-11-09T06:42:57.302Z,7.75
2022-11-09T06:45:23.934Z,7.78
2022-11-09T06:47:54.735Z,7.79
2022-11-09T06:50:23.522Z,7.84
2022-11-09T06:52:55.862Z,7.85
2022-11-09T06:55:22.375Z,7.85
2022-11-09T06:57:48.872Z,7.88
2022-11-09T07:00:18.869Z,7.91
2022-11-09T07:02:50.336Z,7.94
2022-11-09T07:05:19.126Z,7.97
2022-11-09T07:07:50.456Z,8.01
2022-11-09T07:10:17.415Z,8.04
2022-11-09T07:12:44.085Z,8.06
2022-11-09T07:15:13.413Z,8.10
2022-11-09T07:17:41.277Z,8.14
2022-11-09T07:20:09.991Z,8.18
2022-11-09T07:22:42.255Z,8.20
2022-11-09T07:25:14.087Z,8.24
2022-11-09T07:27:40.714Z,8.28
2022-11-09T07:30:13.570Z,8.32
2022-11-09T07:35:30.532Z,8.40
2022-11-09T07:38:02.749Z,8.43
2022-11-09T07:40:30.368Z,8.46
2022-11-09T07:43:00.980Z,8.49
2022-11-09T07:45:31.073Z,8.55
2022-11-09T07:47:59.672Z,8.57
2022-11-09T07:50:29.938Z,8.62
2022-11-09T07:52:57.800Z,8.64
2022-11-09T07:55:27.416Z,8.69
2022-11-09T07:58:04.458Z,8.73
2022-11-09T08:00:36.402Z,8.76
2022-11-09T08:03:03.822Z,8.81
2022-11-09T08:05:30.591Z,8.82
2022-11-09T08:07:58.970Z,8.87
2022-11-09T08:10:27.323Z,8.86
2022-11-09T08:12:58.882Z,8.80
2022-11-09T08:15:28.709Z,8.69
2022-11-09T08:18:00.315Z,8.51
2022-11-09T08:20:32.369Z,8.44
2022-11-09T08:23:03.708Z,8.37
2022-11-09T08:25:37.684Z,8.33
2022-11-09T08:28:04.404Z,8.52
2022-11-09T08:30:32.029Z,8.64
2022-11-09T08:33:02.826Z,8.76
2022-11-09T08:35:30.242Z,8.81
2022-11-09T08:38:02.502Z,8.80
2022-11-09T08:40:30.084Z,8.69
2022-11-09T08:43:02.240Z,8.57
2022-11-09T08:45:32.164Z,8.65
2022-11-09T08:48:01.778Z,8.80
2022-11-09T08:50:29.756Z,8.86
2022-11-09T08:52:56.680Z,8.93
2022-11-09T08:55:27.311Z,8.96
2022-11-09T08:57:57.509Z,8.95
2022-11-09T09:00:27.161Z,8.96
2022-11-09T09:02:55.951Z,9.01
2022-11-09T09:05:25.044Z,9.05
2022-11-09T09:07:53.897Z,9.15
2022-11-09T09:10:22.800Z,9.25
2022-11-09T09:12:49.306Z,9.34
2022-11-09T09:15:23.522Z,9.40
2022-11-09T09:17:50.698Z,9.44
2022-11-09T09:20:20.013Z,9.44
2022-11-09T09:22:46.827Z,9.47
2022-11-09T09:25:15.551Z,9.46
2022-11-09T09:27:44.115Z,9.51
2022-11-09T09:30:11.320Z,9.51
2022-11-09T09:32:37.852Z,9.50
2022-11-09T09:35:04.731Z,9.56
2022-11-09T09:37:33.588Z,9.58
2022-11-09T09:40:00.102Z,9.60
2022-11-09T09:42:36.324Z,9.65
2022-11-09T09:45:14.688Z,9.66
2022-11-09T09:48:19.476Z,9.71
2022-11-09T09:50:53.835Z,9.70
2022-11-09T09:53:37.400Z,9.67
2022-11-09T09:56:13.741Z,9.60
2022-11-09T09:58:49.231Z,9.51
2022-11-09T10:01:20.765Z,9.53
2022-11-09T10:03:51.972Z,9.48
2022-11-09T10:06:37.848Z,9.49
2022-11-09T10:09:07.060Z,9.53
2022-11-09T10:12:04.990Z,9.52
2022-11-09T10:14:53.371Z,9.54
2022-11-09T10:17:25.058Z,9.56
2022-11-09T10:20:35.094Z,9.66
2022-11-09T10:23:35.302Z,9.65
2022-11-09T10:26:16.612Z,9.68
2022-11-09T10:29:14.547Z,9.63
2022-11-09T10:31:41.295Z,9.55
2022-11-09T10:34:40.537Z,9.61
2022-11-09T10:37:38.786Z,9.48
2022-11-09T10:40:08.236Z,9.53
2022-11-09T10:42:38.528Z,9.61
2022-11-09T10:45:26.936Z,9.67
2022-11-09T10:47:53.457Z,9.75
2022-11-09T10:50:39.197Z,9.80
2022-11-09T10:53:10.484Z,9.84
2022-11-09T10:55:49.436Z,9.89
2022-11-09T10:58:25.926Z,9.93
2022-11-09T11:01:06.108Z,9.98
2022-11-09T11:03:38.854Z,9.98
2022-11-09T11:06:25.573Z,10.01
2022-11-09T11:08:59.037Z,10.09
2022-11-09T11:11:35.966Z,10.11
2022-11-09T11:14:23.291Z,10.08
2022-11-09T11:16:54.281Z,10.07
2022-11-09T11:19:32.487Z,10.02
2022-11-09T11:22:27.391Z,10.04
2022-11-09T11:25:01.270Z,9.98
2022-11-09T11:27:53.172Z,10.04
2022-11-09T11:30:28.428Z,10.07
2022-11-09T11:32:58.679Z,10.11
2022-11-09T11:35:34.946Z,10.14
2022-11-09T11:38:22.688Z,10.17
2022-11-09T11:41:01.317Z,10.15
2022-11-09T11:43:40.835Z,10.19
2022-11-09T11:46:21.626Z,10.19
2022-11-09T11:49:12.708Z,10.18
2022-11-09T11:52:16.116Z,10.15
2022-11-09T11:54:49.223Z,9.98
2022-11-09T11:57:33.038Z,10.06
2022-11-09T12:00:18.105Z,10.02
2022-11-09T12:03:07.192Z,10.21
2022-11-09T12:05:39.723Z,10.23
2022-11-09T12:08:31.613Z,10.19
2022-11-09T12:11:23.209Z,10.22
2022-11-09T12:14:01.954Z,10.17
2022-11-09T12:16:40.474Z,10.17
2022-11-09T12:19:10.042Z,10.13
2022-11-09T12:21:55.684Z,10.10
2022-11-09T12:24:24.441Z,10.06
2022-11-09T12:27:31.739Z,10.04
2022-11-09T12:30:18.830Z,10.10
2022-11-09T12:33:03.683Z,10.12
2022-11-09T12:36:01.411Z,10.11
2022-11-09T12:38:39.561Z,10.10
2022-11-09T12:41:30.253Z,10.11
2022-11-09T12:44:23.348Z,10.11
2022-11-09T12:46:59.852Z,10.14
2022-11-09T12:49:39.907Z,10.16
2022-11-09T12:52:08.621Z,10.16
2022-11-09T12:54:37.069Z,10.23
2022-11-09T12:57:11.716Z,10.27
2022-11-09T12:59:54.970Z,10.20
2022-11-09T13:02:31.557Z,10.25
2022-11-09T13:05:01.344Z,10.21
2022-11-09T13:07:49.570Z,10.19
2022-11-09T13:10:38.630Z,10.15
2022-11-09T13:13:08.234Z,10.17
2022-11-09T13:15:35.881Z,10.24
2022-11-09T13:18:05.560Z,10.25
2022-11-09T13:20:54.029Z,10.28
2022-11-09T13:26:32.838Z,10.27
2022-11-09T13:29:14.705Z,10.30
2022-11-09T13:32:12.553Z,10.29
2022-11-09T13:34:40.130Z,10.29
2022-11-09T13:37:44.937Z,10.29
2022-11-09T13:40:35.961Z,10.29
2022-11-09T13:43:12.564Z,10.30
2022-11-09T13:46:01.506Z,10.32
2022-11-09T13:48:47.497Z,10.33
2022-11-09T13:51:38.210Z,10.34
2022-11-09T13:54:43.985Z,10.30
2022-11-09T13:57:11.060Z,10.28
2022-11-09T13:59:48.119Z,10.28
2022-11-09T14:02:26.081Z,10.27
2022-11-09T14:04:54.836Z,10.29
2022-11-09T14:07:30.845Z,10.30
2022-11-09T14:10:03.225Z,10.28
2022-11-09T14:12:57.786Z,10.27
2022-11-09T14:15:44.739Z,10.27
2022-11-09T14:18:23.670Z,10.28
2022-11-09T14:21:10.586Z,10.24
2022-11-09T14:23:41.637Z,10.26
2022-11-09T14:26:09.727Z,10.25
2022-11-09T14:28:38.792Z,10.22
2022-11-09T14:31:06.105Z,10.23
2022-11-09T14:33:36.470Z,10.22
2022-11-09T14:36:04.852Z,10.21
2022-11-09T14:38:34.792Z,10.20
2022-11-09T14:41:04.671Z,10.19
2022-11-09T14:43:44.723Z,10.08
2022-11-09T14:46:21.058Z,10.08
2022-11-09T14:48:55.558Z,10.12
2022-11-09T14:51:33.498Z,10.13
2022-11-09T14:54:01.387Z,10.12
2022-11-09T14:56:33.923Z,10.10
2022-11-09T14:59:04.078Z,10.10
2022-11-09T15:01:30.637Z,10.11
2022-11-09T15:04:20.264Z,10.10
2022-11-09T15:06:52.064Z,10.10
2022-11-09T15:09:21.917Z,10.11
2022-11-09T15:11:51.921Z,10.08
2022-11-09T15:14:41.417Z,10.09
2022-11-09T15:17:25.742Z,10.08
2022-11-09T15:20:03.572Z,10.07
2022-11-09T15:22:49.227Z,10.08
2022-11-09T15:25:24.113Z,10.06
2022-11-09T15:27:58.692Z,10.06
2022-11-09T15:30:49.839Z,10.05
2022-11-09T15:33:19.559Z,10.04
2022-11-09T15:35:51.450Z,10.03
2022-11-09T15:38:44.265Z,10.00
2022-11-09T15:41:17.083Z,10.00
2022-11-09T15:43:44.150Z,9.99
2022-11-09T15:46:20.298Z,9.99
2022-11-09T15:48:47.369Z,9.99
2022-11-09T15:51:19.137Z,9.99
2022-11-09T15:53:45.876Z,10.01
2022-11-09T15:56:23.892Z,10.01
2022-11-09T15:58:52.499Z,10.00
2022-11-09T16:01:19.141Z,10.02
2022-11-09T16:03:45.679Z,10.02
2022-11-09T16:06:19.120Z,10.03
2022-11-09T16:08:50.230Z,10.04
2022-11-09T16:11:19.366Z,10.06
2022-11-09T16:13:45.861Z,10.06
2022-11-09T16:16:17.622Z,10.09
2022-11-09T16:18:44.260Z,10.10
2022-11-09T16:21:16.299Z,10.10
2022-11-09T16:23:45.290Z,10.10
2022-11-09T16:26:14.920Z,10.13
2022-11-09T16:28:44.638Z,10.14
2022-11-09T16:31:14.992Z,10.17
2022-11-09T16:33:41.799Z,10.17
2022-11-09T16:36:13.220Z,10.17
2022-11-09T16:38:43.211Z,10.19
2022-11-09T16:41:11.045Z,10.18
2022-11-09T16:43:37.993Z,10.18
2022-11-09T16:46:04.985Z,10.21
2022-11-09T16:48:35.059Z,10.21
2022-11-09T16:51:02.185Z,10.22
2022-11-09T16:53:31.132Z,10.21
2022-11-09T16:55:57.638Z,10.21
2022-11-09T16:58:24.320Z,10.20
2022-11-09T17:03:40.843Z,10.20
2022-11-09T17:06:11.022Z,10.19
2022-11-09T17:08:41.563Z,10.19
2022-11-09T17:11:12.918Z,10.20
2022-11-09T17:13:42.433Z,10.20
2022-11-09T17:16:11.392Z,10.18
2022-11-09T17:18:38.682Z,10.21
2022-11-09T17:21:16.704Z,10.19
2022-11-09T17:23:46.419Z,10.19
2022-11-09T17:26:15.215Z,10.19
2022-11-09T17:28:44.006Z,10.20
2022-11-09T17:31:18.093Z,10.23
2022-11-09T17:33:44.811Z,10.21
2022-11-09T17:36:16.039Z,10.22
2022-11-09T17:38:45.511Z,10.21
2022-11-09T17:41:18.403Z,10.23
2022-11-09T17:43:47.478Z,10.25
2022-11-09T17:46:20.354Z,10.25
2022-11-09T17:48:48.647Z,10.26
2022-11-09T17:51:17.800Z,10.27
2022-11-09T17:53:44.372Z,10.24
2022-11-09T17:56:11.931Z,10.25
2022-11-09T17:58:43.149Z,10.24
2022-11-09T18:01:19.931Z,10.25
2022-11-09T18:03:49.042Z,10.24
2022-11-09T18:06:25.221Z,10.26
2022-11-09T18:09:25.888Z,10.25
2022-11-09T18:11:46.162Z,10.25
2022-11-09T18:14:18.251Z,10.26
2022-11-09T18:16:45.312Z,10.27
2022-11-09T18:19:14.143Z,10.26
2022-11-09T18:21:41.429Z,10.26
2022-11-09T18:24:10.401Z,10.29
2022-11-09T18:26:36.958Z,10.27
2022-11-09T18:29:03.506Z,10.27
2022-11-09T18:31:34.576Z,10.26
2022-11-09T18:34:03.311Z,10.23
2022-11-09T18:36:29.872Z,10.26
2022-11-09T18:38:58.932Z,10.25
2022-11-09T18:41:27.776Z,10.26
2022-11-09T18:43:54.521Z,10.25
2022-11-09T18:46:24.535Z,10.28
2022-11-09T18:48:54.763Z,10.27
2022-11-09T18:51:21.310Z,10.28
2022-11-09T18:53:48.903Z,10.27
2022-11-09T18:56:21.513Z,10.27
2022-11-09T18:58:49.841Z,10.26
2022-11-09T19:01:19.444Z,10.25
2022-11-09T19:03:46.433Z,10.26
2022-11-09T19:06:15.634Z,10.27
2022-11-09T19:09:01.024Z,10.26
2022-11-09T19:11:28.090Z,10.28
2022-11-09T19:13:54.795Z,10.29
2022-11-09T19:16:24.744Z,10.28
2022-11-09T19:18:55.304Z,10.28
2022-11-09T19:21:24.865Z,10.30
2022-11-09T19:23:54.545Z,10.28
2022-11-09T19:26:22.242Z,10.31
2022-11-09T19:28:48.793Z,10.31
2022-11-09T19:31:22.513Z,10.29
2022-11-09T19:33:49.077Z,10.30
2022-11-09T19:36:33.801Z,10.29
2022-11-09T19:39:01.294Z,10.32
2022-11-09T19:41:27.873Z,10.31
2022-11-09T19:43:58.787Z,10.30
2022-11-09T19:46:33.710Z,10.32
2022-11-09T19:49:03.795Z,10.32
2022-11-09T19:51:33.049Z,10.33
2022-11-09T19:54:04.032Z,10.33
2022-11-09T19:56:32.083Z,10.32
2022-11-09T19:59:01.211Z,10.30
2022-11-09T20:01:28.146Z,10.32
2022-11-09T20:03:58.839Z,10.32
2022-11-09T20:06:25.895Z,10.32
2022-11-09T20:08:53.831Z,10.32
2022-11-09T20:11:41.066Z,10.33
2022-11-09T20:14:08.735Z,10.33
2022-11-09T20:16:36.563Z,10.33
2022-11-09T20:19:04.350Z,10.29
2022-11-09T20:21:34.135Z,10.32
2022-11-09T20:24:03.320Z,10.28
2022-11-09T20:26:29.903Z,10.29
2022-11-09T20:28:58.698Z,10.27
2022-11-09T20:31:29.964Z,10.28
2022-11-09T20:33:56.945Z,10.30
2022-11-09T20:36:23.503Z,10.30
2022-11-09T20:38:50.066Z,10.31
2022-11-09T20:41:18.011Z,10.32
2022-11-09T20:43:49.249Z,10.31
2022-11-09T20:46:18.308Z,10.33
2022-11-09T20:48:55.163Z,10.34
2022-11-09T20:51:23.216Z,10.32
2022-11-09T20:53:50.495Z,10.33
2022-11-09T20:56:17.805Z,10.33
2022-11-09T20:58:47.252Z,10.33
2022-11-09T21:01:17.398Z,10.33
2022-11-09T21:03:46.932Z,10.32
2022-11-09T21:06:14.947Z,10.32
2022-11-09T21:08:53.960Z,10.34
2022-11-09T21:11:23.631Z,10.34
2022-11-09T21:13:51.944Z,10.34
2022-11-09T21:16:20.152Z,10.33
2022-11-09T21:18:46.785Z,10.34
2022-11-09T21:21:21.331Z,10.34
2022-11-09T21:24:06.703Z,10.35
2022-11-09T21:26:54.339Z,10.35
2022-11-09T21:29:42.385Z,10.31
2022-11-09T21:32:11.508Z,10.32
2022-11-09T21:34:38.481Z,10.33
2022-11-09T21:37:05.828Z,10.33
2022-11-09T21:39:32.825Z,10.32
2022-11-09T21:41:59.550Z,10.31
2022-11-09T21:44:30.849Z,10.29
2022-11-09T21:47:00.601Z,10.28
2022-11-09T21:49:29.698Z,10.28
2022-11-09T21:51:56.515Z,10.27
2022-11-09T21:54:24.129Z,10.27
2022-11-09T21:56:51.625Z,10.27
2022-11-09T21:59:18.393Z,10.26
2022-11-09T22:01:45.605Z,10.27
2022-11-09T22:04:14.832Z,10.28
2022-11-09T22:06:43.418Z,10.28
2022-11-09T22:09:17.883Z,10.27
2022-11-09T22:12:05.614Z,10.27
2022-11-09T22:14:50.324Z,10.27
2022-11-09T22:17:19.070Z,10.28
2022-11-09T22:20:06.587Z,10.26
2022-11-09T22:22:34.337Z,10.25
2022-11-09T22:25:00.885Z,10.26
2022-11-09T22:27:30.353Z,10.25
2022-11-09T22:29:56.897Z,10.25
2022-11-09T22:32:25.932Z,10.26
2022-11-09T22:34:52.453Z,10.24
2022-11-09T22:37:21.510Z,10.24
2022-11-09T22:39:50.245Z,10.24
2022-11-09T22:42:16.781Z,10.24
2022-11-09T22:44:43.379Z,10.25
2022-11-09T22:47:13.403Z,10.24
2022-11-09T22:49:42.412Z,10.25
2022-11-09T22:52:09.699Z,10.25
2022-11-09T22:54:36.213Z,10.25
2022-11-09T22:57:03.057Z,10.27
2022-11-09T22:59:34.181Z,10.26
2022-11-09T23:02:00.729Z,10.27
2022-11-09T23:04:32.334Z,10.28
2022-11-09T23:06:58.877Z,10.28
2022-11-09T23:09:27.941Z,10.28
2022-11-09T23:11:56.720Z,10.30
2022-11-09T23:14:43.192Z,10.28
2022-11-09T23:17:29.696Z,10.28
2022-11-09T23:19:56.241Z,10.27
2022-11-09T23:22:22.763Z,10.27
2022-11-09T23:25:07.718Z,10.28
2022-11-09T23:27:34.226Z,10.29
2022-11-09T23:30:00.743Z,10.30
2022-11-09T23:32:27.229Z,10.30
2022-11-09T23:34:56.767Z,10.29
2022-11-09T23:37:25.507Z,10.30
2022-11-09T23:39:52.023Z,10.31
2022-11-09T23:42:20.772Z,10.32
2022-11-09T23:44:52.056Z,10.29
2022-11-09T23:47:20.792Z,10.29
2022-11-09T23:49:49.539Z,10.30
2022-11-09T23:52:18.452Z,10.27
2022-11-09T23:54:47.287Z,10.25
2022-11-09T23:57:18.691Z,10.26
2022-11-09T23:59:45.174Z,10.22
